createdAt,value
2018-08-06T00:02:19.130Z,55.11
2018-08-06T00:04:46.749Z,55.05
2018-08-06T00:07:14.423Z,55.01
2018-08-06T00:09:42.071Z,55.80
2018-08-06T00:12:09.629Z,55.96
2018-08-06T00:14:37.637Z,56.35
2018-08-06T00:17:05.709Z,56.38
2018-08-06T00:19:33.363Z,56.60
2018-08-06T00:22:00.965Z,56.29
2018-08-06T00:24:28.595Z,56.04
2018-08-06T00:26:56.522Z,56.48
2018-08-06T00:29:24.122Z,57.39
2018-08-06T00:31:51.812Z,57.15
2018-08-06T00:34:19.418Z,57.61
2018-08-06T00:36:47.043Z,57.25
2018-08-06T00:39:14.750Z,57.41
2018-08-06T00:41:42.262Z,57.50
2018-08-06T00:44:09.914Z,57.45
2018-08-06T00:46:38.189Z,57.10
2018-08-06T00:49:05.956Z,57.04
2018-08-06T00:51:33.554Z,56.95
2018-08-06T00:54:01.144Z,56.08
2018-08-06T00:56:29.351Z,55.91
2018-08-06T00:58:56.968Z,56.36
2018-08-06T01:01:24.589Z,55.67
2018-08-06T01:03:52.262Z,55.60
2018-08-06T01:06:19.903Z,55.25
2018-08-06T01:08:47.555Z,54.27
2018-08-06T01:11:15.263Z,53.56
2018-08-06T01:13:43.005Z,52.01
2018-08-06T01:16:10.737Z,52.28
2018-08-06T01:18:38.373Z,52.17
2018-08-06T01:21:06.269Z,53.11
2018-08-06T01:23:34.010Z,53.53
2018-08-06T01:26:01.718Z,53.36
2018-08-06T01:28:29.316Z,55.28
2018-08-06T01:30:56.979Z,55.94
2018-08-06T01:33:24.565Z,55.46
2018-08-06T01:35:52.182Z,55.38
2018-08-06T01:38:19.828Z,55.80
2018-08-06T01:40:47.454Z,55.70
2018-08-06T01:43:15.063Z,55.53
2018-08-06T01:45:42.704Z,55.19
2018-08-06T01:48:10.275Z,55.41
2018-08-06T01:50:37.871Z,55.99
2018-08-06T01:53:05.471Z,56.54
2018-08-06T01:55:33.083Z,56.54
2018-08-06T01:58:00.684Z,56.05
2018-08-06T02:00:28.345Z,56.38
2018-08-06T02:02:55.898Z,56.91
2018-08-06T02:05:23.487Z,57.10
2018-08-06T02:07:51.097Z,56.86
2018-08-06T02:10:18.725Z,57.20
2018-08-06T02:12:46.310Z,56.77
2018-08-06T02:15:14.009Z,57.56
2018-08-06T02:17:41.699Z,57.67
2018-08-06T02:20:14.442Z,59.24
2018-08-06T02:22:42.346Z,58.27
2018-08-06T02:25:10.509Z,58.15
2018-08-06T02:27:38.166Z,57.80
2018-08-06T02:30:09.267Z,57.74
2018-08-06T02:32:36.885Z,57.71
2018-08-06T02:35:06.225Z,57.79
2018-08-06T02:37:33.840Z,57.54
2018-08-06T02:40:01.490Z,57.51
2018-08-06T02:42:29.042Z,57.96
2018-08-06T02:44:56.914Z,57.61
2018-08-06T02:47:24.477Z,56.47
2018-08-06T02:49:52.072Z,56.54
2018-08-06T02:52:19.690Z,57.15
2018-08-06T02:54:47.328Z,56.17
2018-08-06T02:57:14.940Z,56.70
2018-08-06T02:59:42.576Z,57.89
2018-08-06T03:02:10.217Z,58.02
2018-08-06T03:04:37.851Z,58.44
2018-08-06T03:07:05.430Z,58.58
2018-08-06T03:09:33.043Z,59.24
2018-08-06T03:12:00.716Z,60.38
2018-08-06T03:14:28.373Z,59.60
2018-08-06T03:16:55.997Z,59.94
2018-08-06T03:19:23.609Z,60.09
2018-08-06T03:21:51.331Z,59.79
2018-08-06T03:24:19.075Z,60.35
2018-08-06T03:26:46.749Z,60.71
2018-08-06T03:29:14.415Z,59.09
2018-08-06T03:31:42.134Z,60.62
2018-08-06T03:34:09.813Z,59.87
2018-08-06T03:36:37.449Z,59.25
2018-08-06T03:39:08.466Z,59.27
2018-08-06T03:41:36.266Z,58.00
2018-08-06T03:44:04.744Z,56.42
2018-08-06T03:46:32.377Z,54.40
2018-08-06T03:49:00.025Z,53.99
2018-08-06T03:51:27.654Z,54.86
2018-08-06T03:53:55.315Z,56.65
2018-08-06T03:56:22.932Z,56.74
2018-08-06T03:58:51.379Z,57.33
2018-08-06T04:01:18.953Z,56.60
2018-08-06T04:03:46.849Z,57.28
2018-08-06T04:06:14.698Z,56.12
2018-08-06T04:08:42.311Z,57.24
2018-08-06T04:11:09.953Z,58.06
2018-08-06T04:13:37.758Z,57.77
2018-08-06T04:16:05.308Z,58.77
2018-08-06T04:18:32.878Z,58.62
2018-08-06T04:21:01.228Z,57.42
2018-08-06T04:23:28.828Z,55.54
2018-08-06T04:25:56.456Z,54.61
2018-08-06T04:28:24.140Z,53.34
2018-08-06T04:30:51.763Z,54.03
2018-08-06T04:33:19.343Z,53.50
2018-08-06T04:35:48.152Z,52.60
2018-08-06T04:38:15.741Z,51.69
2018-08-06T04:40:43.354Z,51.98
2018-08-06T04:43:10.913Z,51.83
2018-08-06T04:45:38.525Z,50.57
2018-08-06T04:48:06.206Z,51.08
2018-08-06T04:50:33.763Z,50.93
2018-08-06T04:53:01.364Z,50.14
2018-08-06T04:55:29.037Z,48.43
2018-08-06T04:57:56.653Z,48.84
2018-08-06T05:00:24.223Z,49.41
2018-08-06T05:02:51.791Z,49.37
2018-08-06T05:05:19.382Z,48.98
2018-08-06T05:07:46.979Z,47.16
2018-08-06T05:10:14.525Z,46.91
2018-08-06T05:12:42.211Z,47.11
2018-08-06T05:15:09.783Z,47.01
2018-08-06T05:17:37.377Z,45.76
2018-08-06T05:20:05.029Z,44.55
2018-08-06T05:22:32.648Z,43.81
2018-08-06T05:25:00.236Z,45.54
2018-08-06T05:27:27.852Z,45.73
2018-08-06T05:29:55.428Z,45.69
2018-08-06T05:32:23.037Z,44.34
2018-08-06T05:34:50.708Z,44.00
2018-08-06T05:37:18.636Z,43.45
2018-08-06T05:39:46.202Z,43.52
2018-08-06T05:42:13.914Z,43.91
2018-08-06T05:44:41.639Z,43.02
2018-08-06T05:47:09.353Z,42.25
2018-08-06T05:49:37.085Z,42.27
2018-08-06T05:52:04.961Z,42.62
2018-08-06T05:54:32.520Z,43.18
2018-08-06T05:57:00.145Z,44.75
2018-08-06T05:59:27.905Z,46.40
2018-08-06T06:01:55.558Z,47.04
2018-08-06T06:04:23.263Z,46.06
2018-08-06T06:06:50.987Z,45.13
2018-08-06T06:09:18.615Z,45.28
2018-08-06T06:11:46.373Z,44.69
2018-08-06T06:14:14.123Z,45.30
2018-08-06T06:16:41.882Z,43.39
2018-08-06T06:19:09.652Z,41.26
2018-08-06T06:21:37.412Z,42.26
2018-08-06T06:24:05.181Z,42.26
2018-08-06T06:26:32.866Z,42.99
2018-08-06T06:29:00.561Z,42.49
2018-08-06T06:31:28.204Z,46.16
2018-08-06T06:33:55.984Z,45.88
2018-08-06T06:36:23.671Z,45.49
2018-08-06T06:38:51.327Z,44.87
2018-08-06T06:41:19.045Z,43.93
2018-08-06T06:43:46.837Z,44.83
2018-08-06T06:46:14.512Z,44.63
2018-08-06T06:48:42.191Z,43.91
2018-08-06T06:51:09.911Z,42.67
2018-08-06T06:53:37.602Z,41.63
2018-08-06T06:56:05.584Z,42.08
2018-08-06T06:58:33.351Z,41.79
2018-08-06T07:01:01.015Z,40.66
2018-08-06T07:03:28.683Z,40.42
2018-08-06T07:05:56.384Z,40.03
2018-08-06T07:08:24.058Z,39.35
2018-08-06T07:10:51.772Z,39.50
2018-08-06T07:13:19.408Z,40.65
2018-08-06T07:15:47.079Z,38.74
2018-08-06T07:47:55.140Z,38.51
2018-08-06T07:50:22.739Z,38.30
2018-08-06T07:52:50.388Z,36.99
2018-08-06T07:55:18.016Z,37.27
2018-08-06T07:57:45.638Z,37.82
2018-08-06T08:00:18.295Z,36.90
2018-08-06T08:02:45.946Z,36.54
2018-08-06T08:05:14.924Z,33.30
2018-08-06T08:07:44.153Z,33.04
2018-08-06T08:10:15.187Z,33.31
2018-08-06T08:12:43.473Z,35.58
2018-08-06T08:15:14.318Z,33.37
2018-08-06T08:17:42.803Z,33.92
2018-08-06T08:20:12.542Z,35.39
2018-08-06T08:22:41.202Z,33.88
2018-08-06T08:25:11.682Z,34.85
2018-08-06T08:27:39.455Z,34.10
2018-08-06T08:30:09.053Z,34.30
2018-08-06T08:32:36.753Z,33.34
2018-08-06T08:35:04.903Z,33.03
2018-08-06T08:37:33.626Z,31.83
2018-08-06T08:40:01.597Z,30.48
2018-08-06T08:42:29.178Z,31.73
2018-08-06T08:44:56.790Z,31.89
2018-08-06T08:47:24.460Z,30.68
2018-08-06T08:49:52.079Z,30.43
2018-08-06T08:52:19.676Z,31.38
2018-08-06T08:54:47.420Z,31.62
2018-08-06T08:57:15.055Z,32.62
2018-08-06T08:59:42.679Z,30.92
2018-08-06T09:02:10.266Z,30.75
2018-08-06T09:04:37.950Z,30.58
2018-08-06T09:07:05.560Z,29.64
2018-08-06T09:09:33.145Z,30.74
2018-08-06T09:12:00.723Z,29.72
2018-08-06T09:14:28.315Z,29.89
2018-08-06T09:16:55.994Z,31.08
2018-08-06T09:19:23.652Z,30.26
2018-08-06T09:21:51.235Z,29.89
2018-08-06T09:24:18.929Z,29.59
2018-08-06T09:26:46.716Z,29.53
2018-08-06T09:29:14.327Z,29.54
2018-08-06T09:31:42.018Z,30.05
2018-08-06T09:34:09.692Z,29.92
2018-08-06T09:36:37.410Z,29.67
2018-08-06T09:39:09.811Z,29.13
2018-08-06T09:41:37.859Z,29.98
2018-08-06T09:44:05.838Z,29.81
2018-08-06T09:46:33.939Z,28.72
2018-08-06T09:49:01.713Z,29.26
2018-08-06T09:51:29.482Z,28.90
2018-08-06T09:53:57.317Z,27.53
2018-08-06T09:56:25.591Z,26.92
2018-08-06T09:58:53.340Z,28.98
2018-08-06T10:01:26.854Z,27.89
2018-08-06T10:03:54.740Z,27.14
2018-08-06T10:06:22.516Z,27.56
2018-08-06T10:08:50.077Z,27.23
2018-08-06T10:11:17.745Z,28.37
2018-08-06T10:13:45.391Z,27.98
2018-08-06T10:16:13.087Z,27.88
2018-08-06T10:18:40.806Z,28.21
2018-08-06T10:21:08.549Z,27.24
2018-08-06T10:23:36.235Z,28.27
2018-08-06T10:26:03.983Z,27.23
2018-08-06T10:28:31.662Z,27.66
2018-08-06T10:30:59.245Z,26.33
2018-08-06T10:33:26.841Z,25.96
2018-08-06T10:35:54.433Z,26.87
2018-08-06T10:38:22.731Z,26.88
2018-08-06T10:40:50.354Z,27.00
2018-08-06T10:43:17.928Z,27.32
2018-08-06T10:45:45.588Z,27.51
2018-08-06T10:48:13.286Z,27.19
2018-08-06T10:50:41.134Z,26.29
2018-08-06T10:53:08.799Z,25.37
2018-08-06T10:55:36.399Z,27.26
2018-08-06T10:58:04.391Z,26.07
2018-08-06T11:00:32.081Z,27.49
2018-08-06T11:02:59.762Z,27.40
2018-08-06T11:05:27.569Z,26.32
2018-08-06T11:07:55.584Z,27.76
2018-08-06T11:10:23.750Z,26.22
2018-08-06T11:12:51.395Z,25.70
2018-08-06T11:15:24.311Z,26.94
2018-08-06T11:17:51.903Z,26.87
2018-08-06T11:20:20.223Z,26.32
2018-08-06T11:22:47.819Z,27.56
2018-08-06T11:25:18.226Z,26.15
2018-08-06T11:27:46.290Z,26.76
2018-08-06T11:30:16.438Z,26.91
2018-08-06T11:32:44.898Z,25.77
2018-08-06T11:35:13.896Z,25.44
2018-08-06T11:37:41.757Z,26.12
2018-08-06T11:40:11.364Z,25.71
2018-08-06T11:42:39.778Z,25.68
2018-08-06T11:45:10.960Z,25.48
2018-08-06T11:47:38.613Z,25.12
2018-08-06T11:50:07.110Z,24.15
2018-08-06T11:52:34.714Z,23.73
2018-08-06T11:55:02.372Z,24.24
2018-08-06T11:57:29.991Z,23.92
2018-08-06T11:59:57.801Z,23.93
2018-08-06T12:02:25.977Z,22.82
2018-08-06T12:04:53.621Z,22.06
2018-08-06T12:07:21.281Z,21.77
2018-08-06T12:09:48.949Z,21.78
2018-08-06T12:12:17.119Z,20.58
2018-08-06T12:14:44.769Z,20.98
2018-08-06T12:17:12.481Z,20.43
2018-08-06T12:19:41.361Z,20.42
2018-08-06T12:22:08.985Z,20.49
2018-08-06T12:24:36.557Z,20.08
2018-08-06T12:27:05.593Z,20.83
2018-08-06T12:29:33.219Z,20.55
2018-08-06T12:32:00.876Z,20.57
2018-08-06T12:49:13.353Z,19.52
2018-08-06T12:51:40.993Z,20.31
2018-08-06T12:54:09.815Z,18.96
2018-08-06T12:56:37.489Z,18.97
2018-08-06T12:59:05.446Z,17.85
2018-08-06T13:01:33.081Z,17.09
2018-08-06T13:04:00.661Z,16.39
2018-08-06T13:06:28.302Z,15.50
2018-08-06T13:08:56.773Z,16.57
2018-08-06T13:11:24.427Z,16.95
2018-08-06T13:13:52.001Z,16.74
2018-08-06T13:16:19.631Z,17.78
2018-08-06T13:18:47.291Z,16.70
2018-08-06T13:21:14.913Z,17.17
2018-08-06T13:23:42.508Z,16.19
2018-08-06T13:26:10.323Z,15.54
2018-08-06T13:28:37.896Z,16.16
2018-08-06T13:31:05.941Z,15.54
2018-08-06T13:33:33.613Z,16.03
2018-08-06T13:36:01.258Z,15.44
2018-08-06T13:38:28.848Z,15.66
2018-08-06T13:40:56.494Z,16.40
2018-08-06T13:43:24.074Z,16.45
2018-08-06T13:45:51.688Z,16.50
2018-08-06T13:48:19.298Z,15.86
2018-08-06T13:50:47.026Z,15.25
2018-08-06T13:53:14.786Z,15.05
2018-08-06T13:55:42.376Z,13.86
2018-08-06T13:58:10.042Z,13.51
2018-08-06T14:00:38.133Z,13.99
2018-08-06T14:03:05.966Z,14.06
2018-08-06T14:05:33.566Z,14.96
2018-08-06T14:08:01.149Z,13.75
2018-08-06T14:10:28.780Z,13.99
2018-08-06T14:12:56.373Z,12.50
2018-08-06T14:15:23.981Z,13.15
2018-08-06T14:17:51.633Z,13.21
2018-08-06T14:20:19.223Z,12.75
2018-08-06T14:22:46.853Z,12.15
2018-08-06T14:25:14.389Z,11.42
2018-08-06T14:27:42.027Z,11.36
2018-08-06T14:30:12.819Z,11.77
2018-08-06T14:32:41.182Z,11.14
2018-08-06T14:35:09.208Z,11.51
2018-08-06T14:37:36.755Z,11.58
2018-08-06T14:40:08.342Z,11.14
2018-08-06T14:42:35.905Z,12.30
2018-08-06T14:45:05.498Z,11.08
2018-08-06T14:47:33.124Z,11.17
2018-08-06T14:50:00.702Z,11.03
2018-08-06T14:52:28.324Z,11.91
2018-08-06T14:54:55.954Z,10.50
2018-08-06T14:57:23.546Z,10.25
2018-08-06T14:59:51.145Z,11.07
2018-08-06T15:02:18.772Z,11.25
2018-08-06T15:04:46.340Z,10.66
2018-08-06T15:07:13.936Z,10.72
2018-08-06T15:09:42.667Z,10.84
2018-08-06T15:12:10.309Z,11.00
2018-08-06T15:14:37.981Z,10.68
2018-08-06T15:17:05.668Z,11.04
2018-08-06T15:19:33.310Z,12.08
2018-08-06T15:22:01.012Z,10.95
2018-08-06T15:24:28.593Z,9.86
2018-08-06T15:26:56.181Z,11.25
2018-08-06T15:29:23.825Z,10.69
2018-08-06T15:31:51.426Z,10.58
2018-08-06T15:34:19.046Z,10.50
2018-08-06T15:36:46.662Z,11.37
2018-08-06T15:39:14.790Z,11.53
2018-08-06T15:41:44.097Z,10.91
2018-08-06T15:44:11.750Z,10.78
2018-08-06T15:46:40.674Z,10.99
2018-08-06T15:49:08.218Z,10.29
2018-08-06T15:51:36.220Z,10.40
2018-08-06T15:54:03.757Z,10.02
2018-08-06T15:56:31.570Z,10.88
2018-08-06T15:58:59.169Z,10.46
2018-08-06T16:01:26.750Z,10.73
2018-08-06T16:03:54.875Z,10.64
2018-08-06T16:06:22.274Z,11.71
2018-08-06T16:08:49.876Z,12.19
2018-08-06T16:11:17.537Z,11.00
2018-08-06T16:13:45.277Z,12.00
2018-08-06T16:16:12.849Z,10.58
2018-08-06T16:18:40.433Z,9.93
2018-08-06T16:21:08.094Z,10.44
2018-08-06T16:23:35.759Z,10.52
2018-08-06T16:26:03.423Z,10.04
2018-08-06T16:28:31.027Z,10.30
2018-08-06T16:30:58.624Z,10.92
2018-08-06T16:33:26.350Z,11.27
2018-08-06T16:35:53.914Z,11.20
2018-08-06T16:38:21.616Z,11.29
2018-08-06T16:40:49.301Z,11.37
2018-08-06T16:43:16.956Z,10.47
2018-08-06T16:45:44.630Z,10.71
2018-08-06T16:48:12.352Z,11.19
2018-08-06T16:50:39.930Z,10.33
2018-08-06T16:53:07.629Z,10.02
2018-08-06T16:55:35.236Z,10.07
2018-08-06T16:58:02.826Z,10.83
2018-08-06T17:00:30.454Z,11.51
2018-08-06T17:02:58.066Z,11.25
2018-08-06T17:05:25.687Z,11.52
2018-08-06T17:07:53.556Z,11.13
2018-08-06T17:10:21.483Z,11.28
2018-08-06T17:12:51.131Z,11.87
2018-08-06T17:15:19.813Z,11.93
2018-08-06T17:17:48.788Z,11.27
2018-08-06T17:20:18.399Z,11.20
2018-08-06T17:22:47.146Z,11.85
2018-08-06T17:25:14.939Z,12.52
2018-08-06T17:27:42.712Z,13.19
2018-08-06T17:30:11.594Z,12.29
2018-08-06T17:32:39.502Z,12.67
2018-08-06T17:35:09.766Z,13.74
2018-08-06T17:37:37.428Z,14.00
2018-08-06T17:40:08.714Z,13.06
2018-08-06T17:42:36.588Z,13.40
2018-08-06T17:45:06.190Z,14.45
2018-08-06T17:47:33.778Z,14.59
2018-08-06T17:50:01.443Z,14.24
2018-08-06T17:52:29.062Z,14.71
2018-08-06T17:54:56.712Z,15.53
2018-08-06T17:57:24.368Z,16.15
2018-08-06T17:59:51.909Z,16.40
2018-08-06T18:02:19.496Z,16.30
2018-08-06T18:04:47.049Z,16.57
2018-08-06T18:07:14.814Z,17.42
2018-08-06T18:09:42.422Z,17.39
2018-08-06T18:12:10.013Z,17.31
2018-08-06T18:14:37.663Z,18.48
2018-08-06T18:17:05.318Z,20.69
2018-08-06T18:19:32.979Z,25.15
2018-08-06T18:22:00.632Z,25.65
2018-08-06T18:24:28.267Z,24.02
2018-08-06T18:26:55.952Z,26.42
2018-08-06T18:29:23.680Z,25.00
2018-08-06T18:31:52.543Z,23.36
2018-08-06T18:34:20.255Z,23.33
2018-08-06T18:36:48.521Z,24.73
2018-08-06T18:39:23.142Z,25.87
2018-08-06T18:41:50.746Z,27.49
2018-08-06T18:44:18.470Z,24.30
2018-08-06T18:46:46.084Z,24.29
2018-08-06T18:49:13.714Z,26.80
2018-08-06T18:51:41.388Z,26.43
2018-08-06T18:54:09.072Z,26.45
2018-08-06T18:56:36.725Z,25.26
2018-08-06T18:59:04.524Z,27.44
2018-08-06T19:01:32.241Z,26.14
2018-08-06T19:03:59.915Z,25.95
2018-08-06T19:06:27.586Z,25.82
2018-08-06T19:08:55.191Z,26.33
2018-08-06T19:11:22.904Z,25.75
2018-08-06T19:13:56.421Z,26.27
2018-08-06T19:16:24.167Z,25.84
2018-08-06T19:18:57.670Z,26.10
2018-08-06T19:21:25.362Z,26.56
2018-08-06T19:23:58.836Z,27.48
2018-08-06T19:26:26.510Z,27.42
2018-08-06T19:28:54.219Z,26.93
2018-08-06T19:31:24.929Z,27.81
2018-08-06T19:33:53.023Z,28.13
2018-08-06T19:36:20.944Z,28.00
2018-08-06T19:38:48.658Z,28.15
2018-08-06T19:41:16.369Z,28.42
2018-08-06T19:43:44.111Z,28.26
2018-08-06T19:46:11.736Z,27.47
2018-08-06T19:48:39.437Z,27.59
2018-08-06T19:51:07.145Z,29.13
2018-08-06T19:53:34.916Z,27.68
2018-08-06T19:56:08.225Z,28.31
2018-08-06T19:58:35.915Z,28.66
2018-08-06T20:01:03.568Z,28.26
2018-08-06T20:03:31.297Z,29.30
2018-08-06T20:05:58.977Z,29.13
2018-08-06T20:08:26.746Z,29.21
2018-08-06T20:10:54.405Z,29.86
2018-08-06T20:13:22.049Z,31.51
2018-08-06T20:15:49.698Z,30.23
2018-08-06T20:18:17.398Z,29.81
2018-08-06T20:20:45.077Z,30.34
2018-08-06T20:23:12.842Z,30.85
2018-08-06T20:25:41.070Z,30.25
2018-08-06T20:28:08.910Z,32.14
2018-08-06T20:30:36.630Z,31.77
2018-08-06T20:33:05.396Z,31.07
2018-08-06T20:35:33.153Z,31.65
2018-08-06T20:38:00.779Z,31.80
2018-08-06T20:40:28.378Z,30.98
2018-08-06T20:42:56.058Z,31.07
2018-08-06T20:45:23.637Z,31.02
2018-08-06T20:47:51.274Z,31.63
2018-08-06T20:50:20.789Z,31.60
2018-08-06T20:52:49.594Z,33.31
2018-08-06T20:55:17.275Z,33.17
2018-08-06T20:57:45.143Z,32.77
2018-08-06T21:00:17.789Z,33.13
2018-08-06T21:02:46.257Z,32.53
2018-08-06T21:05:13.828Z,33.32
2018-08-06T21:07:41.566Z,33.57
2018-08-06T21:10:11.073Z,34.18
2018-08-06T21:12:38.750Z,33.54
2018-08-06T21:15:07.250Z,33.81
2018-08-06T21:17:35.342Z,33.74
2018-08-06T21:20:03.565Z,35.20
2018-08-06T21:22:31.448Z,36.09
2018-08-06T21:24:59.199Z,34.27
2018-08-06T21:27:27.104Z,34.77
2018-08-06T21:29:54.748Z,35.18
2018-08-06T21:32:22.614Z,36.15
2018-08-06T21:34:50.224Z,37.60
2018-08-06T21:37:17.864Z,37.34
2018-08-06T21:39:45.441Z,38.03
2018-08-06T21:42:13.057Z,38.87
2018-08-06T21:44:40.727Z,38.86
2018-08-06T21:47:08.483Z,38.71
2018-08-06T21:49:36.110Z,38.92
2018-08-06T21:52:03.729Z,39.02
2018-08-06T21:54:31.317Z,39.74
2018-08-06T21:56:58.845Z,39.70
2018-08-06T21:59:26.531Z,39.09
